ELW weather

Ellamar Seaplane Base
Ellamar, Alaska, United States

Public forecast

Using degrees Fahrenheit for public forecast. Weather courtesy of forecast.io.

METAR (pilot weather report)

Closest report is Valdez Pioneer Field, 19.6 nm (36.3 km) NE. Retrieved 2019/05/23 01:56 UTC (29 minutes ago):

PAVD 230156Z 27012KT 10SM FEW025 BKN050 OVC100 11/06 A3013

TAF (pilot weather forecast)

Forecast is more than 12 hours old.

Closest forecast is Valdez Pioneer Field, 19.6 nm (36.3 km) NE. Retrieved 2019/05/22 00:42 UTC (1 day ago):

TAF PAVD 222341Z 2300/2324 27015KT P6SM FEW020 BKN060 BKN100 FM230400 VRB05KT P6SM VCSH SCT030 OVC045